Terminal Aerodrome Forecast
Issued by NWS

Home | Current Version | Previous Version | Text Only | Print | Product List | Glossary On
Versions: 1 2 3 4 5 6 7 8 9 10 11 12 13 14 15 16 17 18 19
632
FTUS43 KAPX 010301 AAA
TAFPLN
TAF AMD
KPLN 010301Z 0103/0124 08010G16KT 5SM BR OVC005
     FM010900 08013G24KT 5SM -SHRA VCTS OVC015CB
     FM011200 09013G26KT 4SM -SHRA OVC015 WS020/09040KT
     FM011600 12010G20KT P6SM VCSH BKN010
     FM011800 16008KT P6SM BKN010
     FM012000 21007KT P6SM BKN035=

USA.gov is the U.S. government's official web portal to all federal, state and local government web resources and services.